Time;durP1;ratioP1;P1;durP2;ratioP2;P2;SDS_P1;SDS_P2;PMS_P1;PMS_P2;Temp;Humidity;BMP_temperature;BMP_pressure;BME280_temperature;BME280_humidity;BME280_pressure;Samples;Min_cycle;Max_cycle;Signal;HPM_P1;HPM_P2
2022/04/07 00:01:27;;;;;;;11.18;3.78;;;9.50;99.90;;;;;;5034970;28;20151;-79
2022/04/07 00:03:53;;;;;;;10.40;3.50;;;9.50;99.90;;;;;;5031030;28;20057;-79
2022/04/07 00:06:19;;;;;;;11.48;3.90;;;9.50;99.90;;;;;;5038167;28;20126;-79
2022/04/07 00:08:45;;;;;;;8.07;3.10;;;9.50;99.90;;;;;;5034245;28;20057;-79
2022/04/07 00:11:11;;;;;;;10.45;3.70;;;9.50;99.90;;;;;;5036753;28;20041;-79
2022/04/07 00:13:37;;;;;;;8.85;3.10;;;10.10;99.90;;;;;;5029517;28;20041;-79
2022/04/07 00:16:03;;;;;;;7.90;3.25;;;9.50;99.90;;;;;;5037416;28;20571;-79
2022/04/07 00:18:29;;;;;;;9.20;2.78;;;9.50;99.90;;;;;;5037125;28;20049;-79
2022/04/07 00:20:56;;;;;;;10.00;3.00;;;9.50;99.90;;;;;;5026193;28;20041;-79
2022/04/07 00:23:22;;;;;;;7.57;2.95;;;9.40;99.90;;;;;;5032894;28;20102;-79
2022/04/07 00:25:49;;;;;;;9.80;3.08;;;9.40;99.90;;;;;;5030936;28;20042;-80
2022/04/07 00:28:15;;;;;;;11.77;2.65;;;9.40;99.90;;;;;;5035395;28;20045;-79
2022/04/07 00:30:41;;;;;;;7.78;2.22;;;9.30;99.90;;;;;;5029259;28;20041;-79
2022/04/07 00:33:07;;;;;;;6.85;1.83;;;9.20;99.90;;;;;;5033091;28;20049;-80
2022/04/07 00:35:33;;;;;;;5.35;2.00;;;9.20;99.90;;;;;;5027523;28;20140;-79
2022/04/07 00:37:59;;;;;;;7.18;1.98;;;9.10;99.90;;;;;;5037474;28;20051;-79
2022/04/07 00:40:25;;;;;;;7.93;2.15;;;9.20;99.90;;;;;;5035685;28;20053;-79
2022/04/07 00:42:51;;;;;;;5.13;1.95;;;9.10;99.90;;;;;;5029257;28;20203;-79
2022/04/07 00:45:19;;;;;;;8.57;2.55;;;9.10;99.90;;;;;;5037404;28;20758;-80
2022/04/07 00:47:46;;;;;;;8.32;2.90;;;9.10;99.90;;;;;;5035191;28;20092;-79
2022/04/07 00:50:14;;;;;;;8.13;3.05;;;9.10;99.90;;;;;;5031648;28;20045;-79
2022/04/07 00:52:54;;;;;;;9.90;3.15;;;9.10;99.90;;;;;;5035026;28;20480;-80
2022/04/07 00:55:20;;;;;;;10.13;3.08;;;9.10;99.90;;;;;;5031799;28;20069;-79
2022/04/07 00:57:46;;;;;;;7.55;3.22;;;9.10;99.90;;;;;;5036421;28;20046;-79
2022/04/07 01:00:13;;;;;;;8.45;3.47;;;9.10;99.90;;;;;;5037139;28;20040;-79
2022/04/07 01:02:39;;;;;;;8.45;2.80;;;9.10;99.90;;;;;;5034609;28;20045;-80
2022/04/07 01:05:07;;;;;;;6.75;2.92;;;9.10;99.90;;;;;;5028248;28;20049;-80
2022/04/07 01:07:37;;;;;;;7.28;2.70;;;9.10;99.90;;;;;;5028010;28;20055;-80
2022/04/07 01:10:08;;;;;;;10.38;2.80;;;9.10;99.90;;;;;;5030514;28;20037;-79
2022/04/07 01:12:34;;;;;;;6.40;2.50;;;9.00;99.90;;;;;;5029929;28;20211;-79
2022/04/07 01:15:02;;;;;;;9.93;2.25;;;9.00;99.90;;;;;;5037095;28;20041;-80
2022/04/07 01:17:29;;;;;;;5.32;2.00;;;9.00;99.90;;;;;;5033419;28;20044;-80
2022/04/07 01:19:55;;;;;;;7.32;2.05;;;9.00;99.90;;;;;;5029195;28;20067;-80
2022/04/07 01:22:22;;;;;;;4.50;1.75;;;9.00;99.90;;;;;;5036490;28;20056;-79
2022/04/07 01:24:47;;;;;;;7.80;2.00;;;9.00;99.90;;;;;;5027023;28;20045;-79
2022/04/07 01:27:14;;;;;;;7.05;2.17;;;9.10;99.90;;;;;;5030112;28;20048;-80
2022/04/07 01:29:40;;;;;;;7.82;2.13;;;9.10;99.90;;;;;;5034901;28;20123;-80
2022/04/07 01:32:11;;;;;;;6.63;1.92;;;9.10;99.90;;;;;;5034705;28;20440;-79
2022/04/07 01:34:38;;;;;;;7.47;2.30;;;9.10;99.90;;;;;;5039297;28;20182;-80
2022/04/07 01:37:04;;;;;;;5.80;2.60;;;9.30;99.90;;;;;;5022944;28;20060;-80
2022/04/07 01:39:30;;;;;;;6.18;2.63;;;9.10;99.90;;;;;;5032275;28;20044;-80
2022/04/07 01:41:56;;;;;;;8.25;2.67;;;9.10;99.90;;;;;;5031035;28;20098;-79
2022/04/07 01:44:23;;;;;;;10.32;3.40;;;9.10;99.90;;;;;;5034008;28;20073;-80
2022/04/07 01:46:51;;;;;;;11.38;4.20;;;9.10;99.90;;;;;;5023266;28;20119;-80
2022/04/07 01:49:18;;;;;;;10.55;3.92;;;9.10;99.90;;;;;;5028434;28;20048;-79
2022/04/07 01:51:45;;;;;;;12.32;4.90;;;9.10;99.90;;;;;;5029817;28;20832;-80
2022/04/07 01:54:13;;;;;;;10.25;4.65;;;9.00;99.90;;;;;;5034005;28;20068;-80
2022/04/07 01:56:43;;;;;;;17.42;5.32;;;9.00;99.90;;;;;;5027572;28;20056;-80
2022/04/07 01:59:09;;;;;;;10.75;4.88;;;9.00;99.90;;;;;;5029171;28;20041;-80
2022/04/07 02:01:35;;;;;;;12.27;4.85;;;9.00;99.90;;;;;;5034714;28;20040;-80
2022/04/07 02:04:01;;;;;;;13.50;5.10;;;9.00;99.90;;;;;;5032597;28;20049;-80
2022/04/07 02:06:27;;;;;;;13.27;5.30;;;9.00;99.90;;;;;;5026432;28;20056;-80
2022/04/07 02:08:53;;;;;;;10.18;4.13;;;9.30;99.90;;;;;;5028253;28;20046;-80
2022/04/07 02:11:19;;;;;;;14.07;4.28;;;9.00;99.90;;;;;;5030951;28;20774;-80
2022/04/07 02:13:45;;;;;;;12.85;4.05;;;9.10;99.90;;;;;;5028652;28;20156;-80
2022/04/07 02:16:11;;;;;;;12.50;4.30;;;9.00;99.90;;;;;;5031407;28;20033;-80
2022/04/07 02:18:38;;;;;;;17.20;4.35;;;9.10;99.90;;;;;;5027499;28;20495;-80
2022/04/07 02:21:04;;;;;;;11.40;3.67;;;9.10;99.90;;;;;;5028774;28;20041;-80
2022/04/07 02:23:30;;;;;;;12.13;2.83;;;9.10;99.90;;;;;;5035048;28;20053;-80
2022/04/07 02:25:56;;;;;;;12.63;3.03;;;9.10;99.90;;;;;;5033707;28;20048;-80
2022/04/07 02:28:22;;;;;;;9.38;3.30;;;9.00;99.90;;;;;;5027075;28;20808;-80
2022/04/07 02:30:48;;;;;;;13.18;4.13;;;9.00;99.90;;;;;;5031598;28;20099;-80
2022/04/07 02:33:14;;;;;;;14.55;3.95;;;9.00;99.90;;;;;;5030219;28;20114;-80
2022/04/07 02:35:41;;;;;;;13.90;4.13;;;9.00;99.90;;;;;;5021236;28;20049;-80
2022/04/07 02:38:06;;;;;;;15.20;4.47;;;9.00;99.90;;;;;;5025230;28;20789;-80
2022/04/07 02:40:32;;;;;;;14.13;4.13;;;9.00;99.90;;;;;;5029491;28;20151;-80
2022/04/07 02:42:58;;;;;;;12.02;4.05;;;9.00;99.90;;;;;;5028331;28;20060;-80
2022/04/07 02:45:23;;;;;;;12.98;4.03;;;9.00;99.90;;;;;;5027617;28;20204;-80
2022/04/07 02:47:49;;;;;;;13.00;4.10;;;9.00;99.90;;;;;;5032687;28;20049;-80
2022/04/07 02:50:16;;;;;;;14.95;4.03;;;9.00;99.90;;;;;;5031634;28;20503;-80
2022/04/07 02:52:42;;;;;;;11.73;3.85;;;9.00;99.90;;;;;;5028546;28;20061;-80
2022/04/07 02:55:09;;;;;;;11.77;3.92;;;9.00;99.90;;;;;;5028529;28;20460;-80
2022/04/07 02:57:35;;;;;;;14.90;4.28;;;9.10;99.90;;;;;;5024803;28;20049;-80
2022/04/07 03:00:03;;;;;;;11.60;4.18;;;9.10;99.90;;;;;;5033829;28;20045;-80
2022/04/07 03:02:29;;;;;;;10.98;3.80;;;9.10;99.90;;;;;;5020084;28;20480;-80
2022/04/07 03:04:54;;;;;;;11.73;3.53;;;9.10;99.90;;;;;;5032761;28;20056;-80
2022/04/07 03:07:20;;;;;;;13.90;4.03;;;9.10;99.90;;;;;;5023933;28;20125;-80
2022/04/07 03:09:46;;;;;;;12.75;4.47;;;9.10;99.90;;;;;;5027840;28;20865;-80
2022/04/07 03:12:13;;;;;;;11.85;3.42;;;9.10;99.90;;;;;;5030038;28;20106;-80
2022/04/07 03:14:40;;;;;;;11.90;3.30;;;9.10;99.90;;;;;;5027122;28;20058;-80
2022/04/07 03:17:06;;;;;;;8.10;2.60;;;9.10;99.90;;;;;;5019147;28;20057;-80
2022/04/07 03:19:32;;;;;;;12.98;3.20;;;9.10;99.90;;;;;;5023636;28;20083;-80
2022/04/07 03:21:58;;;;;;;15.43;4.05;;;9.10;99.90;;;;;;5032846;28;20048;-80
2022/04/07 03:24:24;;;;;;;12.25;4.00;;;9.10;99.90;;;;;;5034321;28;20723;-80
2022/04/07 03:26:51;;;;;;;15.38;3.88;;;9.10;99.90;;;;;;5026461;28;20045;-79
2022/04/07 03:29:19;;;;;;;11.18;3.70;;;9.00;99.90;;;;;;5027591;28;20063;-80
2022/04/07 03:31:45;;;;;;;16.33;4.28;;;9.00;99.90;;;;;;5031394;28;20152;-80
2022/04/07 03:34:11;;;;;;;13.65;4.00;;;9.00;99.90;;;;;;5030615;28;20059;-80
2022/04/07 03:36:37;;;;;;;11.57;3.05;;;9.00;99.90;;;;;;5026832;28;20092;-80
2022/04/07 03:39:03;;;;;;;14.15;3.45;;;9.00;99.90;;;;;;5027176;28;20048;-80
2022/04/07 03:41:29;;;;;;;12.25;3.53;;;9.00;99.90;;;;;;5024276;28;20045;-80
2022/04/07 03:43:56;;;;;;;9.35;2.95;;;9.00;99.90;;;;;;5025159;28;20060;-80
2022/04/07 03:46:22;;;;;;;13.60;3.92;;;8.90;99.90;;;;;;5028192;28;20606;-81
2022/04/07 03:48:51;;;;;;;12.20;2.80;;;9.00;99.90;;;;;;5030437;28;20080;-80
2022/04/07 03:51:19;;;;;;;11.80;2.70;;;8.90;99.90;;;;;;5035073;28;20052;-80
2022/04/07 03:53:45;;;;;;;13.13;2.95;;;8.90;99.90;;;;;;5027439;28;20131;-80
2022/04/07 03:56:11;;;;;;;14.35;3.17;;;8.90;99.90;;;;;;5029531;28;20049;-80
2022/04/07 03:58:37;;;;;;;11.00;2.70;;;8.90;99.90;;;;;;5028515;28;20158;-81
2022/04/07 04:01:03;;;;;;;8.18;2.42;;;8.90;99.90;;;;;;5024382;28;20108;-80
2022/04/07 04:03:29;;;;;;;8.05;2.28;;;8.90;99.90;;;;;;5032810;28;20136;-80
2022/04/07 04:05:55;;;;;;;12.60;2.20;;;8.80;99.90;;;;;;5032297;28;20049;-80
2022/04/07 04:08:20;;;;;;;9.60;2.65;;;8.90;99.90;;;;;;5030311;28;20091;-80
2022/04/07 04:10:46;;;;;;;9.63;2.20;;;9.50;99.90;;;;;;5023412;28;20063;-81
2022/04/07 04:13:12;;;;;;;14.07;2.97;;;8.90;99.90;;;;;;5030610;28;20076;-80
2022/04/07 04:15:37;;;;;;;13.00;2.78;;;8.90;99.90;;;;;;5028559;28;20045;-80
2022/04/07 04:18:03;;;;;;;15.98;3.47;;;9.00;99.90;;;;;;5033946;28;20135;-80
2022/04/07 04:20:28;;;;;;;18.33;3.30;;;9.00;99.90;;;;;;5028946;28;20056;-81
2022/04/07 04:22:54;;;;;;;12.82;3.08;;;9.00;99.90;;;;;;5032712;28;20095;-81
2022/04/07 04:25:21;;;;;;;12.10;3.50;;;9.00;99.90;;;;;;5022083;28;20065;-81
2022/04/07 04:27:47;;;;;;;13.77;3.58;;;9.00;99.90;;;;;;5022670;28;20053;-81
2022/04/07 04:30:18;;;;;;;18.27;3.90;;;9.00;99.90;;;;;;5031780;28;20045;-81
2022/04/07 04:32:44;;;;;;;14.85;4.00;;;9.00;99.90;;;;;;5030918;28;20079;-80
2022/04/07 04:35:10;;;;;;;13.15;3.05;;;8.90;99.90;;;;;;5030289;28;20653;-80
2022/04/07 04:37:36;;;;;;;19.48;4.07;;;8.90;99.90;;;;;;5029641;28;20164;-80
2022/04/07 04:40:03;;;;;;;13.98;3.70;;;8.90;99.90;;;;;;5028510;28;20065;-81
2022/04/07 04:42:28;;;;;;;20.85;4.85;;;8.90;99.90;;;;;;5029594;28;20057;-81
2022/04/07 04:44:54;;;;;;;18.45;4.15;;;8.80;99.90;;;;;;5036394;28;20092;-82
2022/04/07 04:47:19;;;;;;;22.20;4.72;;;8.80;99.90;;;;;;5037917;28;20052;-82
2022/04/07 04:49:45;;;;;;;20.08;4.45;;;8.80;99.90;;;;;;5034347;28;20148;-82
2022/04/07 04:52:11;;;;;;;16.90;4.50;;;8.70;99.90;;;;;;5030430;28;20049;-82
2022/04/07 04:54:38;;;;;;;18.25;5.85;;;8.70;99.90;;;;;;5028377;28;20492;-81
2022/04/07 04:57:04;;;;;;;18.65;4.03;;;8.70;99.90;;;;;;5031057;28;20044;-82
2022/04/07 04:59:30;;;;;;;19.15;4.57;;;8.70;99.90;;;;;;5037632;28;20037;-82
2022/04/07 05:01:55;;;;;;;18.45;5.00;;;8.70;99.90;;;;;;5035576;28;20123;-82
2022/04/07 05:04:21;;;;;;;16.88;3.90;;;8.70;99.90;;;;;;5035302;28;20711;-82
2022/04/07 05:06:47;;;;;;;10.90;2.22;;;8.70;99.90;;;;;;5034421;28;20142;-83
2022/04/07 05:09:12;;;;;;;10.70;1.98;;;8.60;99.90;;;;;;5034965;28;20049;-83
2022/04/07 05:11:38;;;;;;;10.15;1.77;;;8.60;99.90;;;;;;5034349;28;20041;-82
2022/04/07 05:14:03;;;;;;;8.00;1.63;;;8.50;99.90;;;;;;5029498;28;20049;-82
2022/04/07 05:16:29;;;;;;;14.55;3.03;;;8.40;99.90;;;;;;5030488;28;20598;-82
2022/04/07 05:18:55;;;;;;;14.80;2.50;;;8.40;99.90;;;;;;5026933;28;20061;-82
2022/04/07 05:21:20;;;;;;;19.27;4.05;;;8.40;99.90;;;;;;5035986;28;20055;-83
2022/04/07 05:23:46;;;;;;;15.93;3.78;;;8.40;99.90;;;;;;5033553;28;20048;-82
2022/04/07 05:26:14;;;;;;;16.75;3.30;;;8.40;99.90;;;;;;5030307;28;20796;-83
2022/04/07 05:28:41;;;;;;;14.38;3.63;;;8.40;99.90;;;;;;5033005;28;20170;-82
2022/04/07 05:31:07;;;;;;;13.18;3.20;;;8.40;99.90;;;;;;5031551;28;20731;-83
2022/04/07 05:33:33;;;;;;;15.50;3.30;;;8.30;99.90;;;;;;5039383;28;20045;-83
2022/04/07 05:35:59;;;;;;;11.88;2.70;;;8.30;99.90;;;;;;5034691;28;20048;-82
2022/04/07 05:38:24;;;;;;;13.73;2.88;;;8.20;99.90;;;;;;5031425;28;20057;-81
2022/04/07 05:40:50;;;;;;;9.52;2.10;;;8.20;99.90;;;;;;5029791;28;20347;-80
2022/04/07 05:43:16;;;;;;;10.90;2.53;;;8.10;99.90;;;;;;5026128;28;20060;-81
2022/04/07 05:45:45;;;;;;;8.65;0.90;;;8.10;99.90;;;;;;5029413;28;20089;-82
2022/04/07 05:48:12;;;;;;;5.32;0.70;;;7.90;99.90;;;;;;5024478;28;20057;-82
2022/04/07 05:50:38;;;;;;;4.45;0.77;;;7.50;99.90;;;;;;5023649;28;20152;-82
2022/04/07 05:53:03;;;;;;;3.38;0.90;;;7.20;99.90;;;;;;5025202;28;20051;-82
2022/04/07 05:55:29;;;;;;;4.07;0.70;;;6.90;99.90;;;;;;5027328;28;20084;-81
2022/04/07 05:57:54;;;;;;;4.28;0.65;;;6.70;99.90;;;;;;5033371;28;20519;-82
2022/04/07 06:00:20;;;;;;;5.47;0.70;;;6.60;99.90;;;;;;5030156;28;20049;-80
2022/04/07 06:02:48;;;;;;;5.70;0.70;;;6.50;99.90;;;;;;5024962;28;20064;-81
2022/04/07 06:05:18;;;;;;;5.55;1.00;;;6.50;99.90;;;;;;5028062;28;20045;-81
2022/04/07 06:07:46;;;;;;;4.72;0.60;;;6.40;99.90;;;;;;5034841;28;20073;-81
2022/04/07 06:10:12;;;;;;;9.48;0.95;;;6.40;99.90;;;;;;5036145;28;20049;-81
2022/04/07 06:12:42;;;;;;;5.60;1.17;;;6.40;99.90;;;;;;5035704;28;20064;-82
2022/04/07 06:15:11;;;;;;;7.35;1.13;;;6.40;99.90;;;;;;5028353;28;20047;-81
2022/04/07 06:17:44;;;;;;;6.10;1.52;;;6.40;99.90;;;;;;5032190;28;20077;-81
2022/04/07 06:20:10;;;;;;;7.97;1.05;;;6.30;99.90;;;;;;5021207;28;20055;-81
2022/04/07 06:22:36;;;;;;;3.88;0.75;;;6.40;99.90;;;;;;5036527;28;20144;-81
2022/04/07 06:25:03;;;;;;;6.88;1.15;;;6.40;99.90;;;;;;5034688;28;20094;-81
2022/04/07 06:27:36;;;;;;;9.65;1.20;;;6.40;99.90;;;;;;5033706;28;20849;-80
2022/04/07 06:30:04;;;;;;;4.93;0.90;;;6.40;99.90;;;;;;5027816;28;20045;-81
2022/04/07 06:32:29;;;;;;;9.35;1.55;;;6.30;99.90;;;;;;5023764;28;20059;-80
2022/04/07 06:34:55;;;;;;;6.07;0.50;;;6.30;99.90;;;;;;5028426;28;20046;-81
2022/04/07 06:37:20;;;;;;;6.18;1.02;;;6.20;99.90;;;;;;5034352;28;20068;-81
2022/04/07 06:39:46;;;;;;;6.00;0.82;;;6.20;99.90;;;;;;5029323;28;20159;-81
2022/04/07 06:42:11;;;;;;;2.95;0.50;;;6.40;99.90;;;;;;5020344;28;20160;-82
2022/04/07 06:44:37;;;;;;;3.30;0.80;;;6.10;99.90;;;;;;5025029;28;20472;-80
2022/04/07 06:47:03;;;;;;;3.50;0.80;;;6.00;99.90;;;;;;5033611;28;20084;-81
2022/04/07 06:49:28;;;;;;;3.92;0.50;;;6.00;99.90;;;;;;5031191;28;20048;-81
2022/04/07 06:51:54;;;;;;;4.95;0.70;;;6.00;99.90;;;;;;5033118;28;20041;-81
2022/04/07 06:54:20;;;;;;;2.45;0.57;;;6.00;99.90;;;;;;5030122;28;20059;-78
2022/04/07 06:56:46;;;;;;;3.97;0.70;;;6.00;99.90;;;;;;5031200;28;20052;-77
2022/04/07 06:59:12;;;;;;;3.15;0.60;;;6.00;99.90;;;;;;5029033;28;20647;-77
2022/04/07 07:01:38;;;;;;;3.42;0.60;;;6.00;99.90;;;;;;5033646;28;20040;-77
2022/04/07 07:04:04;;;;;;;3.30;0.80;;;6.00;99.90;;;;;;5025615;28;20057;-77
2022/04/07 07:06:30;;;;;;;2.65;0.40;;;6.00;99.90;;;;;;5029730;28;20496;-77
2022/04/07 07:08:56;;;;;;;2.40;0.32;;;6.00;99.90;;;;;;5030942;28;20041;-77
2022/04/07 07:11:21;;;;;;;4.32;0.63;;;6.00;99.90;;;;;;5034192;28;20045;-77
2022/04/07 07:13:47;;;;;;;3.25;0.68;;;6.10;99.90;;;;;;5031091;28;20056;-77
2022/04/07 07:16:12;;;;;;;3.05;0.30;;;6.10;99.90;;;;;;5033973;28;20144;-77
2022/04/07 07:18:38;;;;;;;1.17;0.35;;;6.10;99.90;;;;;;5030579;28;20429;-76
2022/04/07 07:21:05;;;;;;;3.55;0.50;;;6.10;99.90;;;;;;5030253;28;20114;-78
2022/04/07 07:23:32;;;;;;;1.52;0.30;;;6.20;99.90;;;;;;5030807;28;20144;-77
2022/04/07 07:25:58;;;;;;;1.27;0.45;;;6.40;99.90;;;;;;5027519;28;20769;-78
2022/04/07 07:28:23;;;;;;;1.85;0.40;;;6.30;99.90;;;;;;5026522;28;20153;-77
2022/04/07 07:30:49;;;;;;;1.10;0.52;;;6.30;99.90;;;;;;5034023;28;20044;-77
2022/04/07 07:33:15;;;;;;;3.17;0.40;;;6.40;99.90;;;;;;5026658;28;20057;-77
2022/04/07 07:35:43;;;;;;;1.65;0.52;;;6.40;99.90;;;;;;5027666;28;20044;-79
2022/04/07 07:38:09;;;;;;;1.98;0.30;;;6.40;99.90;;;;;;5025453;28;20522;-75
2022/04/07 07:40:35;;;;;;;3.60;0.65;;;6.40;99.90;;;;;;5027824;28;20050;-79
2022/04/07 07:43:02;;;;;;;0.85;0.50;;;6.40;99.90;;;;;;5022047;28;20192;-79
2022/04/07 07:45:29;;;;;;;4.63;0.50;;;6.40;99.90;;;;;;5027624;28;20052;-79
2022/04/07 07:47:55;;;;;;;4.88;0.40;;;6.50;99.90;;;;;;5030008;28;21059;-79
2022/04/07 07:50:21;;;;;;;1.35;0.40;;;6.40;99.90;;;;;;5030240;28;20052;-80
2022/04/07 07:52:50;;;;;;;2.70;0.32;;;6.50;99.90;;;;;;5030552;28;20324;-78
2022/04/07 07:55:17;;;;;;;2.65;0.30;;;6.50;99.90;;;;;;5026467;28;20061;-80
2022/04/07 07:57:42;;;;;;;4.07;0.50;;;6.60;99.90;;;;;;5025545;28;20049;-80
2022/04/07 08:00:12;;;;;;;2.92;0.40;;;6.60;99.90;;;;;;5032063;28;20060;-79
2022/04/07 08:02:38;;;;;;;1.90;0.40;;;6.60;99.90;;;;;;5029984;28;20083;-79
2022/04/07 08:05:06;;;;;;;3.55;0.63;;;6.70;99.90;;;;;;5023256;28;20119;-79
2022/04/07 08:07:32;;;;;;;3.97;0.82;;;6.70;99.90;;;;;;5028119;28;21075;-79
2022/04/07 08:09:58;;;;;;;3.20;0.30;;;6.70;99.90;;;;;;5025248;28;20096;-78
2022/04/07 08:12:27;;;;;;;4.68;0.93;;;6.80;99.90;;;;;;5031847;28;20056;-79
2022/04/07 08:14:54;;;;;;;2.85;0.57;;;6.80;99.90;;;;;;5032910;28;20044;-78
2022/04/07 08:17:20;;;;;;;3.92;0.60;;;6.90;99.90;;;;;;5022821;28;20065;-78
2022/04/07 08:19:47;;;;;;;4.32;0.68;;;6.90;99.90;;;;;;5024944;28;20088;-78
2022/04/07 08:22:13;;;;;;;4.38;0.57;;;6.90;99.90;;;;;;5035608;28;20075;-77
2022/04/07 08:24:40;;;;;;;3.88;0.63;;;6.90;99.90;;;;;;5040538;28;20041;-78
2022/04/07 08:27:06;;;;;;;4.78;0.50;;;6.90;99.90;;;;;;5028050;28;20464;-78
2022/04/07 08:29:36;;;;;;;4.18;0.57;;;6.90;99.90;;;;;;5024695;28;20251;-79
2022/04/07 08:32:03;;;;;;;4.15;0.50;;;6.90;99.90;;;;;;5034675;28;20944;-79
2022/04/07 08:34:29;;;;;;;3.08;0.55;;;6.90;99.90;;;;;;5035776;28;20085;-79
2022/04/07 08:36:55;;;;;;;4.40;0.70;;;6.90;99.90;;;;;;5047040;28;20041;-79
2022/04/07 08:39:21;;;;;;;5.80;0.50;;;6.90;99.90;;;;;;5038752;28;20148;-79
2022/04/07 08:41:51;;;;;;;4.75;0.70;;;7.10;99.90;;;;;;5034519;28;20055;-77
2022/04/07 08:44:17;;;;;;;3.03;0.70;;;7.10;99.90;;;;;;5028155;28;20060;-78
2022/04/07 08:46:52;;;;;;;10.05;1.42;;;7.30;99.90;;;;;;5032618;28;20759;-78
2022/04/07 08:49:20;;;;;;;;;;;7.40;99.90;;;;;;5031373;28;20565;-78
2022/04/07 08:51:51;;;;;;;6.32;0.75;;;7.50;99.90;;;;;;5038442;28;19931;-78
2022/04/07 08:54:22;;;;;;;8.13;0.90;;;7.60;99.90;;;;;;5020408;28;20789;-80
2022/04/07 08:56:50;;;;;;;1.60;0.60;;;7.70;99.90;;;;;;5034021;28;20534;-80
2022/04/07 08:59:17;;;;;;;3.47;0.70;;;7.90;99.90;;;;;;5030474;28;20130;-79
2022/04/07 09:01:44;;;;;;;5.45;0.70;;;8.00;99.90;;;;;;5024686;28;20037;-81
2022/04/07 09:04:13;;;;;;;7.05;0.80;;;8.20;99.90;;;;;;5030303;28;20095;-81
2022/04/07 09:06:41;;;;;;;5.00;0.80;;;8.30;99.90;;;;;;5032911;28;20147;-79
2022/04/07 09:09:19;;;;;;;7.75;0.98;;;8.50;99.90;;;;;;5027219;28;20057;-79
2022/04/07 09:11:47;;;;;;;4.82;0.50;;;8.80;99.90;;;;;;5036094;28;20037;-81
2022/04/07 09:14:16;;;;;;;2.90;0.52;;;9.10;99.90;;;;;;5032931;28;20785;-81
2022/04/07 09:16:44;;;;;;;4.07;0.68;;;9.30;99.90;;;;;;5029630;28;20049;-79
2022/04/07 09:19:10;;;;;;;5.82;0.82;;;9.30;99.90;;;;;;5032512;28;20044;-80
2022/04/07 09:21:37;;;;;;;9.15;1.13;;;9.30;99.90;;;;;;5029312;28;20835;-80
2022/04/07 09:24:07;;;;;;;4.63;0.60;;;9.30;99.90;;;;;;5028250;28;20049;-79
2022/04/07 09:26:41;;;;;;;6.22;0.80;;;9.40;99.90;;;;;;5035302;28;20044;-81
2022/04/07 09:29:11;;;;;;;5.97;0.60;;;9.40;99.90;;;;;;5038462;28;20601;-78
2022/04/07 09:31:39;;;;;;;5.70;0.80;;;9.50;99.90;;;;;;5036967;28;20045;-78
2022/04/07 09:34:05;;;;;;;3.33;0.68;;;9.50;99.90;;;;;;5036473;28;20042;-79
2022/04/07 09:36:31;;;;;;;5.15;0.70;;;9.60;99.90;;;;;;5020215;28;20051;-77
2022/04/07 09:39:01;;;;;;;4.95;0.65;;;10.30;99.90;;;;;;5038521;28;20037;-78
2022/04/07 09:41:30;;;;;;;8.48;0.90;;;9.60;99.90;;;;;;5023968;28;20059;-78
2022/04/07 09:43:58;;;;;;;7.50;1.00;;;9.60;99.90;;;;;;5020404;28;20061;-78
2022/04/07 09:46:35;;;;;;;6.30;1.02;;;9.60;99.90;;;;;;5026715;28;20037;-78
2022/04/07 09:49:11;;;;;;;8.75;1.17;;;9.60;99.90;;;;;;5031303;28;20049;-80
2022/04/07 09:51:49;;;;;;;6.40;1.25;;;9.70;99.90;;;;;;5034304;28;20069;-79
2022/04/07 09:54:16;;;;;;;9.70;1.48;;;9.80;99.90;;;;;;5029652;28;20572;-79
2022/04/07 09:56:43;;;;;;;7.97;1.27;;;10.10;99.90;;;;;;5031016;28;20049;-78
2022/04/07 09:59:10;;;;;;;8.40;1.70;;;10.40;99.90;;;;;;5034862;28;20052;-78
2022/04/07 10:01:38;;;;;;;7.40;1.10;;;10.60;99.90;;;;;;5032040;28;20094;-79
2022/04/07 10:04:08;;;;;;;7.25;1.17;;;10.60;99.90;;;;;;5031618;28;20045;-79
2022/04/07 10:06:39;;;;;;;8.07;1.50;;;10.60;99.90;;;;;;5024849;28;20055;-78
2022/04/07 10:09:07;;;;;;;7.13;1.10;;;10.60;99.90;;;;;;5036279;28;20045;-79
2022/04/07 10:11:33;;;;;;;7.22;1.30;;;10.60;99.90;;;;;;5024854;28;20073;-79
2022/04/07 10:14:00;;;;;;;11.85;1.98;;;10.60;99.90;;;;;;5027897;28;21528;-78
2022/04/07 10:16:27;;;;;;;7.97;1.80;;;10.60;99.90;;;;;;5030992;28;20125;-79
2022/04/07 10:18:56;;;;;;;11.00;1.98;;;10.50;99.90;;;;;;5033900;28;20049;-79
2022/04/07 10:22:01;;;;;;;9.70;1.63;;;10.50;99.90;;;;;;5027387;28;20080;-79
2022/04/07 10:24:29;;;;;;;;;;;10.50;99.90;;;;;;5011872;28;20060;-80
2022/04/07 10:26:59;;;;;;;7.65;1.38;;;10.70;99.90;;;;;;5024139;28;19925;-79
2022/04/07 10:29:25;;;;;;;5.50;0.82;;;10.80;99.90;;;;;;5025010;28;20053;-80
2022/04/07 10:32:12;;;;;;;7.10;1.50;;;10.80;99.90;;;;;;5024841;28;20048;-80
2022/04/07 10:34:42;;;;;;;11.15;1.23;;;10.70;99.90;;;;;;5028060;28;20550;-80
2022/04/07 10:37:09;;;;;;;9.20;1.13;;;10.60;99.90;;;;;;5034217;28;20048;-80
2022/04/07 10:39:39;;;;;;;7.20;1.17;;;10.60;99.90;;;;;;5032062;28;20701;-80
2022/04/07 10:42:05;;;;;;;6.72;1.10;;;10.60;99.90;;;;;;5023603;28;20051;-80
2022/04/07 10:44:33;;;;;;;8.65;1.65;;;10.40;99.90;;;;;;5033094;28;20045;-80
2022/04/07 10:47:08;;;;;;;10.88;1.60;;;10.40;99.90;;;;;;5029605;28;20044;-80
2022/04/07 10:49:34;;;;;;;11.02;1.55;;;10.40;99.90;;;;;;5021421;28;20580;-80
2022/04/07 10:52:07;;;;;;;10.40;1.42;;;10.40;99.90;;;;;;5030755;28;20848;-80
2022/04/07 10:54:33;;;;;;;8.68;1.50;;;10.60;99.90;;;;;;5026253;28;20199;-80
2022/04/07 10:57:01;;;;;;;14.77;1.35;;;10.70;99.90;;;;;;5033183;28;20053;-80
2022/04/07 10:59:32;;;;;;;9.32;1.50;;;10.70;99.90;;;;;;5034016;28;20665;-79
2022/04/07 11:02:12;;;;;;;9.38;1.58;;;10.50;99.90;;;;;;5035325;28;20067;-80
2022/04/07 11:05:10;;;;;;;8.73;1.85;;;10.50;99.90;;;;;;5028972;28;20082;-80
2022/04/07 11:07:52;;;;;;;13.88;1.60;;;10.50;99.90;;;;;;5025047;28;20064;-80
2022/04/07 11:10:39;;;;;;;9.02;1.30;;;10.50;99.90;;;;;;5037946;28;20037;-79
2022/04/07 11:13:05;;;;;;;9.15;1.00;;;10.40;99.90;;;;;;5030762;28;20166;-80
2022/04/07 11:15:54;;;;;;;6.35;1.50;;;10.30;99.90;;;;;;5035537;28;20576;-80
2022/04/07 11:18:26;;;;;;;5.80;1.17;;;9.90;99.90;;;;;;5022506;28;20091;-80
2022/04/07 11:21:09;;;;;;;11.15;1.35;;;9.40;99.90;;;;;;5022024;28;20584;-80
2022/04/07 11:23:53;;;;;;;9.95;1.40;;;9.10;99.90;;;;;;5033220;28;20128;-79
2022/04/07 11:26:24;;;;;;;12.20;1.90;;;8.90;99.90;;;;;;5030222;28;20620;-79
2022/04/07 11:29:10;;;;;;;9.68;1.40;;;8.80;99.90;;;;;;5034005;28;20052;-78
2022/04/07 11:31:48;;;;;;;10.13;2.05;;;9.10;99.90;;;;;;5029348;28;20056;-79
2022/04/07 11:34:35;;;;;;;14.45;1.77;;;9.30;99.90;;;;;;5024896;28;20085;-79
2022/04/07 11:37:09;;;;;;;10.52;1.75;;;9.50;99.90;;;;;;5026070;28;20050;-79
2022/04/07 11:39:38;;;;;;;12.05;1.73;;;9.80;99.90;;;;;;5026123;28;20135;-79
2022/04/07 11:42:04;;;;;;;8.80;2.42;;;10.10;99.90;;;;;;5023912;28;20095;-80
2022/04/07 11:44:33;;;;;;;14.77;1.92;;;10.40;99.90;;;;;;5031465;28;20072;-80
2022/04/07 11:47:00;;;;;;;12.85;2.00;;;10.00;99.90;;;;;;5026740;28;20045;-80
2022/04/07 11:49:28;;;;;;;12.05;1.75;;;10.80;99.90;;;;;;5036238;28;20731;-80
2022/04/07 11:51:54;;;;;;;10.32;1.40;;;11.00;99.90;;;;;;5036456;28;20045;-80
2022/04/07 11:54:21;;;;;;;13.30;1.65;;;11.10;99.90;;;;;;5030100;28;20050;-78
2022/04/07 11:56:48;;;;;;;12.73;2.40;;;11.20;99.90;;;;;;5023740;28;20360;-79
2022/04/07 11:59:13;;;;;;;10.85;2.38;;;11.20;99.90;;;;;;5027941;28;20068;-79
2022/04/07 12:01:46;;;;;;;11.82;1.65;;;11.20;99.90;;;;;;5032070;28;20046;-80
2022/04/07 12:04:13;;;;;;;7.78;1.38;;;11.20;99.90;;;;;;5028518;28;20076;-79
2022/04/07 12:06:43;;;;;;;12.70;1.60;;;11.10;99.90;;;;;;5035994;28;20531;-80
2022/04/07 12:09:09;;;;;;;12.93;1.95;;;11.10;99.90;;;;;;5033970;28;20560;-81
2022/04/07 12:11:38;;;;;;;9.30;2.00;;;11.00;99.90;;;;;;5039899;28;20044;-79
2022/04/07 12:14:08;;;;;;;13.80;2.10;;;11.10;99.90;;;;;;5037205;28;20053;-81
2022/04/07 12:16:34;;;;;;;9.35;1.67;;;11.10;99.90;;;;;;5039328;28;20529;-79
2022/04/07 12:19:02;;;;;;;11.75;2.10;;;11.30;99.90;;;;;;5036031;28;20044;-79
2022/04/07 12:21:48;;;;;;;12.65;2.10;;;11.40;99.90;;;;;;5035672;28;20153;-80
2022/04/07 12:24:14;;;;;;;8.73;1.65;;;11.50;99.90;;;;;;5033040;28;20500;-80
2022/04/07 12:26:59;;;;;;;16.25;2.38;;;11.50;99.90;;;;;;5038898;28;20044;-81
2022/04/07 12:29:30;;;;;;;11.95;1.98;;;11.50;99.90;;;;;;5030791;28;20468;-80
2022/04/07 12:32:07;;;;;;;13.05;1.65;;;11.40;99.90;;;;;;5032259;28;20579;-78
2022/04/07 12:34:34;;;;;;;11.38;1.80;;;11.40;99.90;;;;;;5033131;28;20104;-79
2022/04/07 12:37:01;;;;;;;14.65;2.25;;;11.40;99.90;;;;;;5029005;28;20045;-78
2022/04/07 12:39:34;;;;;;;12.38;2.08;;;11.50;99.90;;;;;;5040356;28;20484;-80
2022/04/07 12:42:05;;;;;;;7.57;1.58;;;11.50;99.90;;;;;;5030924;28;20057;-80
2022/04/07 12:44:30;;;;;;;7.95;1.65;;;11.40;99.90;;;;;;5034974;28;20564;-79
2022/04/07 12:46:57;;;;;;;3.33;0.82;;;11.20;99.90;;;;;;5026048;28;20098;-79
2022/04/07 12:49:28;;;;;;;8.05;1.13;;;10.80;99.90;;;;;;5055163;28;20094;-79
2022/04/07 12:52:04;;;;;;;4.25;0.60;;;10.50;99.90;;;;;;5061482;28;20045;-79
2022/04/07 12:54:30;;;;;;;4.60;1.10;;;10.20;99.90;;;;;;5045494;28;20152;-79